createdAt,value
2022-08-03T00:00:01.382Z,100751.04
2022-08-03T00:03:51.103Z,100755.93
2022-08-03T00:07:21.123Z,100755.96
2022-08-03T00:13:56.096Z,100756.08
2022-08-03T00:17:25.712Z,100758.00
2022-08-03T00:20:45.642Z,100760.83
2022-08-03T00:24:18.016Z,100762.23
2022-08-03T00:27:28.056Z,100760.91
2022-08-03T00:30:46.818Z,100763.85
2022-08-03T00:34:07.191Z,100765.11
2022-08-03T00:37:02.838Z,100762.07
2022-08-03T00:39:54.364Z,100760.56
2022-08-03T00:43:14.474Z,100760.80
2022-08-03T00:46:26.203Z,100761.05
2022-08-03T00:49:37.872Z,100761.23
2022-08-03T00:52:47.544Z,100760.09
2022-08-03T00:55:45.626Z,100762.23
2022-08-03T00:59:02.515Z,100765.36
2022-08-03T01:02:07.150Z,100765.73
2022-08-03T01:05:19.981Z,100762.56
2022-08-03T01:08:31.849Z,100764.63
2022-08-03T01:12:01.681Z,100758.51
2022-08-03T01:15:17.302Z,100758.02
2022-08-03T01:18:52.814Z,100758.38
2022-08-03T01:22:04.402Z,100763.20
2022-08-03T01:25:44.537Z,100763.73
2022-08-03T01:29:00.796Z,100764.83
2022-08-03T01:32:53.429Z,100758.13
2022-08-03T01:35:52.537Z,100760.08
2022-08-03T01:38:52.704Z,100759.22
2022-08-03T01:42:12.361Z,100757.35
2022-08-03T01:45:34.617Z,100756.52
2022-08-03T01:49:09.189Z,100756.38
2022-08-03T01:52:14.579Z,100752.29
2022-08-03T01:55:28.293Z,100751.41
2022-08-03T01:58:40.422Z,100748.00
2022-08-03T02:01:26.437Z,100744.95
2022-08-03T02:04:50.413Z,100742.23
2022-08-03T02:08:01.124Z,100742.08
2022-08-03T02:10:59.414Z,100735.94
2022-08-03T02:13:56.253Z,100738.40
2022-08-03T02:17:00.535Z,100738.93
2022-08-03T02:20:00.669Z,100739.47
2022-08-03T02:22:46.153Z,100737.41
2022-08-03T02:25:25.010Z,100736.60
2022-08-03T02:28:11.487Z,100736.11
2022-08-03T02:30:58.219Z,100738.35
2022-08-03T02:33:53.887Z,100739.05
2022-08-03T02:36:38.324Z,100738.91
2022-08-03T02:39:26.972Z,100741.50
2022-08-03T02:42:12.203Z,100735.34
2022-08-03T02:45:08.228Z,100735.90
2022-08-03T02:47:54.482Z,100743.52
2022-08-03T02:50:36.583Z,100746.48
2022-08-03T02:53:34.416Z,100745.66
2022-08-03T02:56:12.810Z,100743.80
2022-08-03T02:59:01.922Z,100747.58
2022-08-03T03:01:47.525Z,100750.52
2022-08-03T03:04:25.699Z,100749.31
2022-08-03T03:07:13.283Z,100749.23
2022-08-03T03:09:55.257Z,100749.55
2022-08-03T03:12:39.988Z,100748.89
2022-08-03T03:15:22.995Z,100750.24
2022-08-03T03:18:00.657Z,100747.69
2022-08-03T03:20:44.880Z,100749.04
2022-08-03T03:23:29.405Z,100753.83
2022-08-03T03:26:06.091Z,100751.77
2022-08-03T03:28:45.231Z,100756.05
2022-08-03T03:31:19.133Z,100757.09
2022-08-03T03:33:55.944Z,100758.80
2022-08-03T03:36:41.416Z,100753.81
2022-08-03T03:39:26.868Z,100755.67
2022-08-03T03:42:09.706Z,100757.72
2022-08-03T03:45:01.534Z,100759.41
2022-08-03T03:47:39.863Z,100759.36
2022-08-03T03:50:41.819Z,100759.34
2022-08-03T03:53:30.345Z,100763.44
2022-08-03T03:56:07.704Z,100765.10
2022-08-03T03:58:54.085Z,100765.21
2022-08-03T04:01:32.484Z,100767.73
2022-08-03T04:04:31.083Z,100763.55
2022-08-03T04:07:30.903Z,100762.84
2022-08-03T04:10:26.670Z,100768.29
2022-08-03T04:13:12.473Z,100773.52
2022-08-03T04:15:52.999Z,100777.56
2022-08-03T04:18:48.440Z,100777.73
2022-08-03T04:21:40.425Z,100779.68
2022-08-03T04:24:36.589Z,100781.14
2022-08-03T04:27:31.628Z,100786.88
2022-08-03T04:30:13.768Z,100789.49
2022-08-03T04:33:06.951Z,100786.30
2022-08-03T04:36:01.228Z,100792.53
2022-08-03T04:38:59.519Z,100793.95
2022-08-03T04:42:07.693Z,100794.64
2022-08-03T04:44:39.805Z,100799.29
2022-08-03T04:47:27.461Z,100800.35
2022-08-03T04:50:21.786Z,100802.61
2022-08-03T04:53:11.746Z,100809.85
2022-08-03T04:55:58.224Z,100807.98
2022-08-03T04:58:38.302Z,100805.61
2022-08-03T05:01:20.768Z,100807.19
2022-08-03T05:04:00.945Z,100809.46
2022-08-03T05:06:47.838Z,100807.64
2022-08-03T05:09:50.097Z,100810.61
2022-08-03T05:12:20.537Z,100811.90
2022-08-03T05:14:56.977Z,100812.02
2022-08-03T05:17:34.093Z,100809.73
2022-08-03T05:20:11.682Z,100813.10
2022-08-03T05:23:05.301Z,100814.05
2022-08-03T05:25:49.589Z,100816.52
2022-08-03T05:28:31.186Z,100817.63
2022-08-03T05:31:13.421Z,100819.98
2022-08-03T05:34:04.514Z,100823.02
2022-08-03T05:36:57.241Z,100821.26
2022-08-03T05:39:45.651Z,100831.67
2022-08-03T05:42:39.439Z,100831.79
2022-08-03T05:45:36.398Z,100831.73
2022-08-03T05:48:29.807Z,100831.84
2022-08-03T05:51:14.747Z,100831.41
2022-08-03T05:54:13.424Z,100832.71
2022-08-03T05:56:52.793Z,100836.55
2022-08-03T05:59:38.056Z,100835.48
2022-08-03T06:02:09.757Z,100837.52
2022-08-03T06:04:45.559Z,100839.58
2022-08-03T06:07:27.147Z,100842.27
2022-08-03T06:10:36.029Z,100840.48
2022-08-03T06:12:59.442Z,100840.00
2022-08-03T06:15:33.307Z,100840.67
2022-08-03T06:18:17.304Z,100844.67
2022-08-03T06:20:53.199Z,100848.32
2022-08-03T06:23:54.532Z,100847.89
2022-08-03T06:26:29.962Z,100847.24
2022-08-03T06:29:00.707Z,100849.38
2022-08-03T06:31:37.143Z,100848.38
2022-08-03T06:34:30.627Z,100847.98
2022-08-03T06:37:03.524Z,100846.52
2022-08-03T06:39:34.461Z,100850.11
2022-08-03T06:42:07.843Z,100849.43
2022-08-03T06:44:43.873Z,100845.08
2022-08-03T06:47:20.052Z,100846.75
2022-08-03T06:50:12.652Z,100845.17
2022-08-03T06:52:41.528Z,100844.78
2022-08-03T06:55:15.684Z,100845.46
2022-08-03T06:57:53.751Z,100847.56
2022-08-03T07:00:27.025Z,100845.40
2022-08-03T07:03:00.878Z,100847.64
2022-08-03T07:05:35.327Z,100846.02
2022-08-03T07:08:08.767Z,100851.02
2022-08-03T07:10:39.079Z,100853.44
2022-08-03T07:13:12.403Z,100858.14
2022-08-03T07:15:55.583Z,100858.01
2022-08-03T07:18:29.601Z,100858.52
2022-08-03T07:21:09.120Z,100863.05
2022-08-03T07:23:42.903Z,100861.52
2022-08-03T07:26:13.912Z,100857.11
2022-08-03T07:28:46.730Z,100857.73
2022-08-03T07:31:19.257Z,100856.80
2022-08-03T07:33:50.165Z,100853.24
2022-08-03T07:36:24.984Z,100854.91
2022-08-03T07:38:58.731Z,100854.59
2022-08-03T07:41:29.580Z,100854.90
2022-08-03T07:44:03.879Z,100854.56
2022-08-03T07:46:37.626Z,100855.88
2022-08-03T07:49:11.575Z,100857.45
2022-08-03T07:51:42.795Z,100860.15
2022-08-03T07:54:16.548Z,100862.94
2022-08-03T07:56:50.851Z,100861.96
2022-08-03T07:59:27.596Z,100860.98
2022-08-03T08:02:01.575Z,100860.51
2022-08-03T08:04:32.086Z,100859.77
2022-08-03T08:07:05.770Z,100856.49
2022-08-03T08:09:40.268Z,100856.63
2022-08-03T08:12:15.614Z,100861.98
2022-08-03T08:14:49.621Z,100860.79
2022-08-03T08:17:20.467Z,100863.49
2022-08-03T08:19:54.539Z,100864.46
2022-08-03T08:22:32.451Z,100869.04
2022-08-03T08:25:42.644Z,100866.61
2022-08-03T08:29:00.049Z,100867.38
2022-08-03T08:32:19.935Z,100868.88
2022-08-03T08:35:39.819Z,100863.11
2022-08-03T08:39:08.905Z,100863.12
2022-08-03T08:42:37.796Z,100865.18
2022-08-03T08:46:25.800Z,100864.89
2022-08-03T09:24:02.240Z,100867.84
2022-08-03T10:11:40.385Z,100855.48
2022-08-03T10:15:10.090Z,100851.63
2022-08-03T10:18:57.146Z,100851.35
2022-08-03T10:22:00.870Z,100852.38
2022-08-03T10:25:33.347Z,100848.99
2022-08-03T10:29:02.089Z,100848.42
2022-08-03T10:32:17.343Z,100851.45
2022-08-03T10:35:49.477Z,100851.55
2022-08-03T10:50:14.182Z,100859.26
2022-08-03T10:53:54.900Z,100858.78
2022-08-03T10:57:31.881Z,100856.20
2022-08-03T11:01:02.966Z,100858.26
2022-08-03T11:04:37.721Z,100854.63
2022-08-03T11:08:18.301Z,100853.16
2022-08-03T11:11:47.690Z,100845.91
2022-08-03T11:14:40.737Z,100840.01
2022-08-03T11:18:11.132Z,100842.94
2022-08-03T11:21:38.855Z,100843.06
2022-08-03T11:25:53.686Z,100840.90
2022-08-03T11:28:25.385Z,100837.23
2022-08-03T11:31:48.858Z,100835.60
2022-08-03T11:35:14.833Z,100828.84
2022-08-03T11:38:25.138Z,100831.10
2022-08-03T11:41:16.865Z,100827.92
2022-08-03T11:44:32.468Z,100826.50
2022-08-03T11:47:24.707Z,100821.31
2022-08-03T11:50:33.103Z,100818.04
2022-08-03T11:54:01.879Z,100818.62
2022-08-03T11:59:16.885Z,100817.95
2022-08-03T12:04:22.865Z,100819.86
2022-08-03T12:08:03.905Z,100817.40
2022-08-03T12:11:26.161Z,100815.48
2022-08-03T12:14:54.839Z,100811.47
2022-08-03T12:18:23.679Z,100812.45
2022-08-03T12:21:24.757Z,100807.13
2022-08-03T12:24:53.291Z,100805.48
2022-08-03T12:28:28.213Z,100802.83
2022-08-03T12:32:06.625Z,100802.59
2022-08-03T12:35:42.025Z,100802.68
2022-08-03T12:38:58.423Z,100795.95
2022-08-03T12:42:19.845Z,100795.23
2022-08-03T12:45:34.788Z,100788.38
2022-08-03T12:48:44.020Z,100788.38
2022-08-03T12:51:32.488Z,100784.92
2022-08-03T12:54:51.412Z,100780.95
2022-08-03T14:14:14.844Z,100744.74
2022-08-03T14:17:18.128Z,100740.44
2022-08-03T14:19:55.331Z,100741.08
2022-08-03T14:23:26.412Z,100739.85
2022-08-03T14:26:45.855Z,100734.79
2022-08-03T14:34:10.482Z,100730.52
2022-08-03T14:37:23.122Z,100726.73
2022-08-03T14:40:41.710Z,100726.06
2022-08-03T14:44:08.885Z,100722.45
2022-08-03T14:47:20.248Z,100713.63
2022-08-03T14:50:37.432Z,100721.07
2022-08-03T14:52:59.669Z,100716.63
2022-08-03T14:56:33.539Z,100718.52
2022-08-03T15:00:02.155Z,100713.78
2022-08-03T15:03:31.890Z,100715.06
2022-08-03T15:14:13.557Z,100717.02
2022-08-03T15:17:42.864Z,100711.47
2022-08-03T15:21:01.996Z,100709.71
2022-08-03T15:24:21.792Z,100707.91
2022-08-03T15:28:02.932Z,100703.82
2022-08-03T15:31:33.117Z,100701.95
2022-08-03T15:35:01.757Z,100700.87
2022-08-03T15:38:30.294Z,100702.55
2022-08-03T15:41:58.776Z,100702.36
2022-08-03T15:45:27.879Z,100701.36
2022-08-03T15:49:05.193Z,100696.34
2022-08-03T15:55:36.102Z,100688.45
2022-08-03T15:59:04.450Z,100687.58
2022-08-03T16:32:11.343Z,100670.77
2022-08-03T17:18:49.016Z,100675.17
2022-08-03T18:16:24.051Z,100723.02
2022-08-03T18:22:38.600Z,100723.49
2022-08-03T18:25:50.199Z,100726.90
2022-08-03T18:29:14.338Z,100724.98
2022-08-03T18:32:37.478Z,100727.77
2022-08-03T18:39:21.052Z,100741.35
2022-08-03T18:45:55.875Z,100756.97
2022-08-03T18:48:48.345Z,100755.70
2022-08-03T18:51:52.530Z,100757.90
2022-08-03T18:55:02.482Z,100761.23
2022-08-03T18:58:03.608Z,100763.73
2022-08-03T19:01:59.114Z,100765.67
2022-08-03T19:04:58.285Z,100765.05
2022-08-03T19:08:23.134Z,100766.50
2022-08-03T19:11:17.777Z,100767.10
2022-08-03T19:14:42.629Z,100765.30
2022-08-03T20:12:39.362Z,100777.73
2022-08-03T20:33:27.890Z,100773.61
2022-08-03T20:37:04.086Z,100769.36
2022-08-03T20:40:31.784Z,100769.61
2022-08-03T21:14:39.759Z,100776.90
2022-08-03T21:18:09.529Z,100780.12
2022-08-03T21:21:38.716Z,100778.20
2022-08-03T21:25:07.677Z,100778.52
2022-08-03T21:28:37.222Z,100777.83
2022-08-03T21:32:05.747Z,100778.08
2022-08-03T21:35:36.223Z,100781.43
2022-08-03T21:39:04.911Z,100779.76
2022-08-03T21:42:33.707Z,100772.91
2022-08-03T21:46:02.351Z,100776.98
2022-08-03T21:50:02.630Z,100780.15
2022-08-03T21:53:23.859Z,100779.24
2022-08-03T21:57:02.560Z,100783.65
2022-08-03T22:00:31.270Z,100787.57
2022-08-03T22:03:59.937Z,100787.39
2022-08-03T22:07:30.808Z,100785.98
2022-08-03T22:10:59.686Z,100787.16
2022-08-03T22:14:33.311Z,100786.37
2022-08-03T22:18:01.956Z,100785.19
2022-08-03T22:21:36.415Z,100787.89
2022-08-03T22:25:05.322Z,100785.08
2022-08-03T22:28:33.893Z,100780.48
2022-08-03T22:32:02.335Z,100781.91
2022-08-03T22:35:31.624Z,100779.06
2022-08-03T22:39:00.311Z,100776.52
2022-08-03T22:42:29.291Z,100773.45
2022-08-03T22:46:08.999Z,100772.97
2022-08-03T22:49:38.595Z,100774.25
2022-08-03T22:53:07.333Z,100774.27
2022-08-03T22:56:37.278Z,100772.40
2022-08-03T23:00:07.742Z,100773.65
2022-08-03T23:03:59.980Z,100774.14
2022-08-03T23:07:26.666Z,100774.41
2022-08-03T23:10:55.418Z,100777.80
2022-08-03T23:14:24.126Z,100775.83
2022-08-03T23:21:53.909Z,100767.13
2022-08-03T23:25:28.613Z,100769.89
2022-08-03T23:28:57.293Z,100771.67
2022-08-03T23:32:25.928Z,100767.44
2022-08-03T23:36:28.725Z,100764.05
2022-08-03T23:39:41.841Z,100762.19
2022-08-03T23:43:14.055Z,100763.36
2022-08-03T23:46:49.765Z,100764.00
2022-08-03T23:50:18.361Z,100759.47
2022-08-03T23:54:01.936Z,100755.84
2022-08-03T23:57:40.043Z,100758.98
